Time;durP1;ratioP1;P1;durP2;ratioP2;P2;SDS_P1;SDS_P2;PMS_P1;PMS_P2;Temp;Humidity;BMP_temperature;BMP_pressure;BME280_temperature;BME280_humidity;BME280_pressure;Samples;Min_cycle;Max_cycle;Signal;HPM_P1;HPM_P2
2022/12/09 00:01:34;;;;;;;38.03;19.27;;;;;;;6.50;59.53;99227.25;4408828;32;20098;-87
2022/12/09 00:03:59;;;;;;;35.45;18.37;;;;;;;6.38;59.54;99229.22;4400843;32;20105;-87
2022/12/09 00:06:26;;;;;;;38.20;16.73;;;;;;;6.24;59.52;99220.94;4394292;32;20164;-86
2022/12/09 00:08:52;;;;;;;35.38;18.15;;;;;;;6.32;59.53;99213.84;4392733;32;20159;-85
2022/12/09 00:11:17;;;;;;;36.97;18.87;;;;;;;6.31;59.53;99206.97;4384487;32;20098;-86
2022/12/09 00:13:42;;;;;;;33.35;17.27;;;;;;;6.26;59.52;99203.66;4396224;32;20118;-86
2022/12/09 00:16:10;;;;;;;39.33;19.67;;;;;;;6.22;59.53;99216.69;4399094;32;20122;-86
2022/12/09 00:18:35;;;;;;;34.08;18.45;;;;;;;6.25;59.53;99221.78;4405066;32;20486;-85
2022/12/09 00:21:31;;;;;;;41.08;18.95;;;;;;;6.09;59.52;99229.03;4384406;32;20112;-86
2022/12/09 00:23:57;;;;;;;37.97;18.30;;;;;;;6.09;59.52;99236.78;4383174;32;20108;-87
2022/12/09 00:26:22;;;;;;;39.40;19.98;;;;;;;6.11;59.51;99241.03;4396102;32;20133;-85
2022/12/09 00:28:48;;;;;;;38.70;18.85;;;;;;;6.29;59.53;99236.34;4408830;32;20102;-85
2022/12/09 00:31:19;;;;;;;39.63;18.80;;;;;;;6.18;59.52;99248.66;4408107;32;20097;-85
2022/12/09 00:33:44;;;;;;;39.38;19.40;;;;;;;6.08;59.52;99245.41;4408100;32;20418;-85
2022/12/09 00:36:14;;;;;;;42.28;19.65;;;;;;;6.03;59.51;99244.66;4392892;32;20122;-85
2022/12/09 00:38:40;;;;;;;;;;;;;;;6.11;59.51;99245.34;4400720;32;20159;-86
2022/12/09 00:41:05;;;;;;;40.42;19.30;;;;;;;6.09;59.52;99240.22;4409463;32;20033;-86
2022/12/09 00:43:31;;;;;;;43.15;19.92;;;;;;;5.98;59.50;99236.19;4410397;32;22554;-86
2022/12/09 00:45:56;;;;;;;37.55;19.75;;;;;;;5.99;59.52;99232.72;4408414;32;20110;-86
2022/12/09 00:48:21;;;;;;;40.25;20.58;;;;;;;6.08;59.52;99223.00;4398836;32;20451;-85
2022/12/09 00:50:47;;;;;;;42.80;20.52;;;;;;;5.89;59.51;99221.66;4394993;32;21208;-87
2022/12/09 00:53:12;;;;;;;42.05;20.75;;;;;;;5.96;59.51;99233.63;4387627;32;20684;-86
2022/12/09 00:55:38;;;;;;;40.03;19.90;;;;;;;6.01;59.52;99234.38;4395840;32;20167;-87
2022/12/09 00:58:03;;;;;;;43.15;20.08;;;;;;;5.95;59.51;99242.25;4402658;32;20098;-86
2022/12/09 01:00:28;;;;;;;45.88;21.20;;;;;;;6.00;59.52;99239.56;4398154;32;20168;-87
2022/12/09 01:02:54;;;;;;;42.75;20.12;;;;;;;5.89;59.50;99244.06;4405157;32;20133;-86
2022/12/09 01:05:19;;;;;;;41.92;19.87;;;;;;;6.01;59.51;99246.44;4411140;32;20165;-88
2022/12/09 01:07:45;;;;;;;38.25;19.87;;;;;;;6.03;59.51;99255.84;4383607;32;20192;-88
2022/12/09 01:10:10;;;;;;;36.60;18.25;;;;;;;6.06;59.52;99248.03;4393529;32;20081;-86
2022/12/09 01:12:35;;;;;;;39.55;19.45;;;;;;;6.20;59.52;99254.66;4396760;32;20479;-87
2022/12/09 01:15:01;;;;;;;42.53;20.73;;;;;;;6.26;59.52;99242.44;4392522;32;20150;-88
2022/12/09 01:17:26;;;;;;;44.42;21.55;;;;;;;6.24;59.52;99240.75;4411564;32;20136;-88
2022/12/09 01:19:52;;;;;;;44.63;21.35;;;;;;;6.29;59.53;99232.03;4386227;32;20730;-86
2022/12/09 01:22:17;;;;;;;40.90;20.65;;;;;;;6.25;59.52;99234.72;4399007;32;20176;-88
2022/12/09 01:24:42;;;;;;;38.40;20.42;;;;;;;6.12;59.51;99239.28;4409212;32;20128;-88
2022/12/09 01:27:08;;;;;;;41.40;20.37;;;;;;;6.14;59.53;99232.34;4399181;32;20098;-87
2022/12/09 01:29:34;;;;;;;37.83;19.25;;;;;;;6.22;59.53;99227.03;4398064;32;20136;-88
2022/12/09 01:31:59;;;;;;;44.55;20.23;;;;;;;6.37;59.54;99235.25;4396433;32;20097;-88
2022/12/09 01:34:25;;;;;;;38.80;19.40;;;;;;;6.24;59.52;99227.84;4396320;32;20156;-87
2022/12/09 01:36:50;;;;;;;43.63;19.87;;;;;;;6.22;59.53;99230.47;4399643;32;20114;-88
2022/12/09 01:39:16;;;;;;;41.30;21.42;;;;;;;6.17;59.52;99227.16;4405926;32;20144;-87
2022/12/09 01:41:41;;;;;;;39.13;20.25;;;;;;;6.26;59.52;99218.31;4396351;32;20150;-86
2022/12/09 01:44:13;;;;;;;41.92;20.67;;;;;;;6.30;59.53;99217.34;4390145;32;20110;-88
2022/12/09 01:46:38;;;;;;;43.95;22.17;;;;;;;6.37;59.53;99209.41;4423952;32;20110;-87
2022/12/09 01:49:05;;;;;;;39.33;20.85;;;;;;;6.35;59.54;99215.50;4411705;32;20097;-88
2022/12/09 01:51:30;;;;;;;43.87;20.88;;;;;;;6.40;59.54;99226.63;4386827;32;20094;-88
2022/12/09 01:53:56;;;;;;;41.45;21.70;;;;;;;6.38;59.54;99225.78;4389128;32;20206;-87
2022/12/09 01:56:26;;;;;;;41.00;20.92;;;;;;;6.20;59.52;99233.97;4379852;32;20484;-89
2022/12/09 01:58:51;;;;;;;;;;;;;;;6.23;59.53;99224.41;4392057;32;20097;-89
2022/12/09 02:01:16;;;;;;;39.22;18.62;;;;;;;6.27;59.52;99223.44;4389940;32;20346;-88
2022/12/09 02:03:42;;;;;;;46.53;21.80;;;;;;;6.30;59.53;99225.97;4394140;32;20519;-89
2022/12/09 02:06:07;;;;;;;37.65;19.98;;;;;;;6.34;59.53;99224.16;4409294;32;20106;-89
2022/12/09 02:08:33;;;;;;;38.42;20.30;;;;;;;6.30;59.53;99214.78;4389826;32;20162;-88
2022/12/09 02:11:10;;;;;;;40.55;20.58;;;;;;;6.45;59.54;99219.59;4420146;32;20145;-88
2022/12/09 02:14:02;;;;;;;50.60;21.30;;;;;;;6.50;59.54;99204.81;4411682;32;20129;-87
2022/12/09 02:16:28;;;;;;;44.72;20.77;;;;;;;6.28;59.54;99201.03;4418595;32;20157;-89
2022/12/09 02:19:07;;;;;;;39.95;20.45;;;;;;;6.40;59.53;99201.63;4384535;32;20086;-88
2022/12/09 02:21:35;;;;;;;39.75;21.12;;;;;;;6.35;59.54;99202.59;4400026;32;20123;-88
2022/12/09 02:24:15;;;;;;;45.28;21.30;;;;;;;6.34;59.53;99193.13;4387073;32;20742;-88
2022/12/09 02:26:41;;;;;;;40.30;20.60;;;;;;;6.26;59.52;99197.66;4412223;32;20109;-88
2022/12/09 02:29:31;;;;;;;40.90;21.58;;;;;;;6.35;59.54;99202.59;4401209;32;20116;-88
2022/12/09 02:32:19;;;;;;;43.83;21.60;;;;;;;6.42;59.54;99194.66;4404452;32;20153;-87
2022/12/09 02:34:54;;;;;;;40.50;20.42;;;;;;;6.34;59.53;99199.16;4399786;32;20738;-88
2022/12/09 02:37:24;;;;;;;45.20;20.88;;;;;;;6.13;59.51;99204.81;4389776;32;20128;-89
2022/12/09 02:39:56;;;;;;;41.20;20.97;;;;;;;6.31;59.53;99193.22;4386930;32;20178;-89
2022/12/09 02:42:23;;;;;;;44.85;21.73;;;;;;;6.42;59.54;99189.50;4409618;32;20171;-87
2022/12/09 02:44:49;;;;;;;41.22;20.02;;;;;;;6.24;59.52;99191.66;4385085;32;20129;-89
2022/12/09 02:47:16;;;;;;;42.65;21.20;;;;;;;6.36;59.54;99191.34;4396969;32;20118;-89
2022/12/09 02:49:41;;;;;;;39.53;19.83;;;;;;;6.48;59.54;99191.06;4394431;32;20549;-88
2022/12/09 02:52:06;;;;;;;43.65;20.98;;;;;;;6.34;59.53;99187.97;4399121;32;20097;-89
2022/12/09 02:54:32;;;;;;;38.75;20.12;;;;;;;6.37;59.53;99193.06;4398821;32;24352;-89
2022/12/09 02:57:01;;;;;;;44.15;21.67;;;;;;;6.40;59.53;99188.69;4399169;32;20102;-89
2022/12/09 02:59:26;;;;;;;40.92;21.08;;;;;;;6.41;59.53;99177.47;4399447;32;20102;-89
2022/12/09 03:02:13;;;;;;;42.62;20.85;;;;;;;6.50;59.53;99185.87;4398839;32;20081;-90
2022/12/09 03:04:39;;;;;;;43.50;20.92;;;;;;;6.53;59.54;99185.78;4409166;32;20117;-89
2022/12/09 03:07:19;;;;;;;41.50;21.12;;;;;;;6.33;59.53;99178.50;4398493;32;20074;-89
2022/12/09 03:09:45;;;;;;;42.85;21.40;;;;;;;6.08;59.52;99181.66;4399679;32;20457;-88
2022/12/09 03:12:11;;;;;;;42.40;20.55;;;;;;;6.18;59.52;99186.66;4398974;32;20085;-87
2022/12/09 03:14:47;;;;;;;41.65;21.90;;;;;;;6.10;59.52;99179.06;4398896;32;21313;-89
2022/12/09 03:17:23;;;;;;;42.25;21.60;;;;;;;6.22;59.53;99194.28;4396561;32;20136;-88
2022/12/09 03:19:53;;;;;;;43.97;22.13;;;;;;;6.16;59.52;99202.19;4389741;32;20797;-88
2022/12/09 03:22:19;;;;;;;;;;;;;;;6.26;59.52;99201.06;4390981;32;20122;-88
2022/12/09 03:24:56;;;;;;;48.63;22.42;;;;;;;6.28;59.54;99201.03;4408476;32;19997;-89
2022/12/09 03:27:24;;;;;;;42.65;21.25;;;;;;;6.26;59.52;99192.47;4395269;32;20139;-88
2022/12/09 03:29:50;;;;;;;43.22;22.02;;;;;;;6.27;59.52;99200.19;4409184;32;20089;-89
2022/12/09 03:32:17;;;;;;;47.03;23.05;;;;;;;6.46;59.54;99193.69;4396350;32;20495;-89
2022/12/09 03:34:43;;;;;;;43.50;22.05;;;;;;;6.54;59.55;99193.50;4408793;32;20184;-89
2022/12/09 03:37:08;;;;;;;42.83;22.15;;;;;;;6.38;59.53;99192.16;4391062;32;20171;-89
2022/12/09 03:39:34;;;;;;;46.03;22.95;;;;;;;6.42;59.54;99184.31;4394594;32;20124;-88
2022/12/09 03:42:01;;;;;;;48.28;23.33;;;;;;;6.41;59.53;99181.78;4390361;32;20112;-88
2022/12/09 03:44:38;;;;;;;44.35;21.17;;;;;;;6.47;59.54;99179.88;4398464;32;20110;-89
2022/12/09 03:47:04;;;;;;;45.83;22.15;;;;;;;6.45;59.54;99181.66;4389973;32;20114;-89
2022/12/09 03:49:30;;;;;;;44.67;21.40;;;;;;;6.67;59.55;99186.31;4386028;32;20098;-89
2022/12/09 03:51:59;;;;;;;48.30;22.85;;;;;;;6.54;59.54;99183.16;4399071;32;20124;-89
2022/12/09 03:54:31;;;;;;;43.33;23.00;;;;;;;6.46;59.54;99185.94;4399016;32;20110;-88
2022/12/09 03:56:56;;;;;;;46.10;22.40;;;;;;;6.55;59.54;99191.78;4396131;32;20117;-89
2022/12/09 03:59:23;;;;;;;47.45;22.50;;;;;;;6.46;59.54;99178.19;4389625;32;20108;-88
2022/12/09 04:01:48;;;;;;;49.97;23.35;;;;;;;6.42;59.54;99181.75;4408429;32;20112;-89
2022/12/09 04:04:14;;;;;;;50.63;23.25;;;;;;;6.34;59.53;99175.03;4395371;32;20744;-87
2022/12/09 04:06:40;;;;;;;50.67;23.00;;;;;;;6.17;59.52;99177.19;4390654;32;20165;-88
2022/12/09 04:09:05;;;;;;;44.47;22.62;;;;;;;6.20;59.52;99169.38;4386181;32;20514;-88
2022/12/09 04:11:31;;;;;;;44.17;21.27;;;;;;;6.19;59.52;99175.41;4383384;32;20137;-89
2022/12/09 04:13:57;;;;;;;45.70;22.58;;;;;;;6.31;59.53;99173.38;4395281;32;20118;-87
2022/12/09 04:16:22;;;;;;;46.83;23.70;;;;;;;6.11;59.51;99170.41;4398576;32;20110;-88
2022/12/09 04:18:47;;;;;;;52.58;23.33;;;;;;;6.09;59.52;99161.84;4398020;32;20094;-89
2022/12/09 04:21:16;;;;;;;43.85;22.70;;;;;;;6.27;59.52;99170.91;4385235;32;20374;-88
2022/12/09 04:23:41;;;;;;;48.75;23.17;;;;;;;6.30;59.53;99161.34;4383034;32;20136;-88
2022/12/09 04:26:07;;;;;;;53.40;23.92;;;;;;;6.26;59.52;99164.91;4396572;32;20125;-88
2022/12/09 04:28:32;;;;;;;52.42;23.55;;;;;;;6.32;59.53;99163.91;4385178;32;20419;-89
2022/12/09 04:30:58;;;;;;;54.03;23.38;;;;;;;6.42;59.53;99173.13;4383647;32;20161;-87
2022/12/09 04:33:23;;;;;;;48.53;22.87;;;;;;;6.22;59.53;99172.75;4384615;32;20141;-87
2022/12/09 04:35:49;;;;;;;50.10;23.02;;;;;;;6.34;59.53;99167.28;4397311;32;20141;-87
2022/12/09 04:38:14;;;;;;;47.62;23.62;;;;;;;6.50;59.54;99166.03;4397172;32;20176;-88
2022/12/09 04:40:40;;;;;;;54.70;23.60;;;;;;;6.58;59.55;99158.91;4397247;32;20157;-87
2022/12/09 04:43:05;;;;;;;45.70;24.08;;;;;;;6.40;59.53;99157.66;4397520;32;20121;-88
2022/12/09 04:45:30;;;;;;;53.38;23.83;;;;;;;6.36;59.54;99155.16;4395214;32;20110;-88
2022/12/09 04:47:59;;;;;;;46.72;23.73;;;;;;;6.33;59.53;99155.25;4380185;32;20138;-88
2022/12/09 04:50:24;;;;;;;54.17;24.98;;;;;;;6.29;59.53;99143.28;4382857;32;20414;-89
2022/12/09 04:52:50;;;;;;;51.85;24.00;;;;;;;6.41;59.53;99159.38;4392958;32;20124;-89
2022/12/09 04:55:15;;;;;;;48.28;25.52;;;;;;;6.35;59.54;99161.22;4397819;32;20408;-88
2022/12/09 04:57:41;;;;;;;52.67;23.70;;;;;;;6.21;59.53;99158.16;4397377;32;20491;-88
2022/12/09 05:00:07;;;;;;;49.00;23.02;;;;;;;6.28;59.53;99155.37;4397381;32;20136;-88
2022/12/09 05:02:33;;;;;;;53.00;23.30;;;;;;;6.39;59.53;99157.72;4396996;32;20110;-87
2022/12/09 05:05:00;;;;;;;51.40;24.77;;;;;;;6.36;59.53;99148.25;4396531;32;20141;-88
2022/12/09 05:07:27;;;;;;;49.83;23.30;;;;;;;6.36;59.54;99155.16;4394350;32;20093;-88
2022/12/09 05:09:52;;;;;;;49.20;25.17;;;;;;;6.43;59.54;99151.56;4390117;32;20201;-87
2022/12/09 05:12:17;;;;;;;51.58;24.33;;;;;;;6.41;59.53;99158.53;4404165;32;20111;-87
2022/12/09 05:14:43;;;;;;;56.58;24.77;;;;;;;6.25;59.52;99152.84;4382804;32;20170;-86
2022/12/09 05:17:08;;;;;;;49.60;25.00;;;;;;;6.30;59.53;99151.00;4410333;32;20093;-88
2022/12/09 05:19:34;;;;;;;54.10;25.90;;;;;;;6.26;59.52;99146.81;4391832;32;20149;-87
2022/12/09 05:21:59;;;;;;;59.97;25.62;;;;;;;6.34;59.53;99144.03;4398371;32;20177;-85
2022/12/09 05:24:25;;;;;;;51.85;24.37;;;;;;;6.28;59.53;99145.03;4383555;32;20114;-85
2022/12/09 05:26:50;;;;;;;55.40;25.05;;;;;;;6.29;59.53;99141.56;4402716;32;20108;-86
2022/12/09 05:29:15;;;;;;;62.33;26.58;;;;;;;6.13;59.52;99146.22;4407095;32;20538;-88
2022/12/09 05:31:41;;;;;;;61.97;25.73;;;;;;;6.20;59.53;99149.53;4389519;32;20133;-88
2022/12/09 05:34:06;;;;;;;58.08;25.62;;;;;;;6.18;59.52;99142.72;4396175;32;20181;-88
2022/12/09 05:36:32;;;;;;;52.67;24.77;;;;;;;6.13;59.52;99151.41;4399169;32;20435;-89
2022/12/09 05:38:57;;;;;;;59.63;25.58;;;;;;;6.26;59.52;99145.97;4404765;32;20085;-87
2022/12/09 05:41:22;;;;;;;53.80;25.48;;;;;;;6.36;59.53;99145.69;4398126;32;20177;-88
2022/12/09 05:43:48;;;;;;;60.88;25.20;;;;;;;6.37;59.53;99143.94;4390522;32;20129;-87
2022/12/09 05:46:14;;;;;;;59.10;26.65;;;;;;;6.21;59.53;99138.31;4396435;32;20166;-87
2022/12/09 05:48:39;;;;;;;58.90;25.08;;;;;;;6.18;59.52;99134.97;4410987;32;20081;-87
2022/12/09 05:51:13;;;;;;;57.75;26.25;;;;;;;6.20;59.53;99134.03;4410768;32;20109;-87
2022/12/09 05:53:38;;;;;;;56.05;25.67;;;;;;;6.08;59.52;99139.47;4385645;32;20831;-87
2022/12/09 05:56:03;;;;;;;61.05;26.17;;;;;;;6.13;59.52;99130.72;4404723;32;25603;-87
2022/12/09 05:58:29;;;;;;;57.58;25.23;;;;;;;6.15;59.52;99131.56;4386211;32;20113;-87
2022/12/09 06:00:56;;;;;;;60.65;25.98;;;;;;;6.21;59.53;99130.56;4385738;32;20687;-87
2022/12/09 06:03:22;;;;;;;60.20;24.92;;;;;;;6.27;59.52;99126.97;4394034;32;20482;-87
2022/12/09 06:05:47;;;;;;;62.28;28.10;;;;;;;6.30;59.53;99125.16;4380499;32;20124;-85
2022/12/09 06:08:12;;;;;;;64.72;26.98;;;;;;;6.21;59.53;99134.88;4409816;32;20133;-87
2022/12/09 06:10:39;;;;;;;60.40;25.95;;;;;;;6.18;59.52;99124.63;4407343;32;20126;-86
2022/12/09 06:13:04;;;;;;;67.00;28.50;;;;;;;6.22;59.53;99132.25;4404501;32;20212;-85
2022/12/09 06:15:30;;;;;;;61.97;26.45;;;;;;;6.17;59.52;99128.94;4394624;32;20146;-86
2022/12/09 06:17:55;;;;;;;65.45;28.45;;;;;;;6.23;59.53;99122.78;4385541;32;20117;-87
2022/12/09 06:20:20;;;;;;;71.72;29.05;;;;;;;6.22;59.53;99124.50;4393472;32;20165;-87
2022/12/09 06:22:46;;;;;;;69.93;28.35;;;;;;;6.26;59.52;99120.09;4410785;32;20542;-86
2022/12/09 06:25:11;;;;;;;73.15;29.55;;;;;;;6.30;59.53;99120.00;4396724;32;20118;-86
2022/12/09 06:27:37;;;;;;;67.78;28.33;;;;;;;6.33;59.53;99119.06;4411659;32;21843;-86
2022/12/09 06:30:03;;;;;;;60.42;28.58;;;;;;;6.19;59.52;99122.00;4397549;32;20161;-87
2022/12/09 06:32:29;;;;;;;69.43;26.58;;;;;;;6.30;59.53;99127.75;4410437;32;20155;-86
2022/12/09 06:34:55;;;;;;;69.85;28.52;;;;;;;6.33;59.53;99122.50;4410204;32;20113;-86
2022/12/09 06:37:20;;;;;;;55.63;25.80;;;;;;;6.29;59.53;99133.81;4397886;32;20141;-86
2022/12/09 06:39:46;;;;;;;61.08;27.37;;;;;;;6.29;59.53;99128.62;4408908;32;20587;-87
2022/12/09 06:42:11;;;;;;;58.87;25.12;;;;;;;6.36;59.54;99124.16;4395224;32;20113;-86
2022/12/09 06:44:38;;;;;;;64.55;26.65;;;;;;;6.39;59.53;99122.38;4405602;32;20262;-87
2022/12/09 06:47:04;;;;;;;67.15;27.25;;;;;;;6.41;59.53;99128.34;4380816;32;20112;-87
2022/12/09 06:49:30;;;;;;;67.82;28.25;;;;;;;6.41;59.53;99120.59;4410826;32;20132;-87
2022/12/09 06:51:55;;;;;;;66.60;29.00;;;;;;;6.49;59.54;99114.38;4385713;32;20117;-88
2022/12/09 06:54:21;;;;;;;58.22;26.70;;;;;;;6.43;59.54;99120.56;4385637;32;20122;-86
2022/12/09 06:56:46;;;;;;;64.30;28.38;;;;;;;6.41;59.53;99115.41;4409580;32;20162;-87
2022/12/09 06:59:12;;;;;;;68.75;27.48;;;;;;;6.36;59.53;99109.50;4395646;32;20141;-88
2022/12/09 07:01:37;;;;;;;62.42;26.27;;;;;;;6.31;59.53;99111.34;4388645;32;20180;-88
2022/12/09 07:04:03;;;;;;;60.67;25.95;;;;;;;6.49;59.54;99109.19;4398023;32;20149;-87
2022/12/09 07:06:30;;;;;;;58.55;27.55;;;;;;;6.55;59.54;99101.28;4398446;32;20101;-87
2022/12/09 07:08:58;;;;;;;64.05;25.65;;;;;;;6.56;59.54;99102.97;4395732;32;20179;-87
2022/12/09 07:11:24;;;;;;;62.70;27.42;;;;;;;6.56;59.54;99102.97;4393385;32;20169;-87
2022/12/09 07:13:50;;;;;;;66.05;26.23;;;;;;;6.47;59.54;99099.75;4397647;32;20119;-87
2022/12/09 07:16:15;;;;;;;67.40;27.08;;;;;;;6.41;59.53;99110.25;4398442;32;20093;-87
2022/12/09 07:18:40;;;;;;;55.05;26.48;;;;;;;6.59;59.55;99102.88;4397830;32;20168;-87
2022/12/09 07:21:08;;;;;;;56.70;25.35;;;;;;;6.56;59.54;99101.22;4396799;32;20195;-86
2022/12/09 07:23:33;;;;;;;60.08;26.67;;;;;;;6.63;59.54;99097.62;4400220;32;20124;-87
2022/12/09 07:26:01;;;;;;;61.63;25.73;;;;;;;6.47;59.54;99098.91;4397015;32;20171;-87
2022/12/09 07:28:27;;;;;;;64.65;25.95;;;;;;;6.52;59.54;99103.94;4382255;32;20132;-87
2022/12/09 07:30:52;;;;;;;58.35;25.05;;;;;;;6.59;59.55;99108.06;4389025;32;20117;-87
2022/12/09 07:33:17;;;;;;;60.65;26.23;;;;;;;6.66;59.55;99102.72;4386933;32;20162;-87
2022/12/09 07:35:43;;;;;;;60.00;24.98;;;;;;;6.82;59.55;99102.28;4408791;32;20196;-87
2022/12/09 07:38:08;;;;;;;51.50;24.00;;;;;;;6.81;59.56;99108.34;4396864;32;20114;-87
2022/12/09 07:40:34;;;;;;;60.83;24.67;;;;;;;6.87;59.56;99101.28;4394270;32;20124;-88
2022/12/09 07:42:59;;;;;;;59.42;25.02;;;;;;;7.03;59.57;99093.94;4393918;32;20098;-87
2022/12/09 07:45:25;;;;;;;68.57;27.95;;;;;;;6.92;59.56;99094.22;4394181;32;20447;-88
2022/12/09 07:47:50;;;;;;;53.25;25.73;;;;;;;6.95;59.57;99095.88;4384412;32;20142;-88
2022/12/09 07:50:15;;;;;;;63.55;25.65;;;;;;;7.00;59.57;99088.84;4381970;32;20179;-88
2022/12/09 07:52:41;;;;;;;66.68;26.85;;;;;;;6.94;59.57;99092.44;4378571;32;20141;-88
2022/12/09 07:55:07;;;;;;;56.83;25.50;;;;;;;7.02;59.56;99089.62;4384463;32;20205;-88
2022/12/09 07:57:33;;;;;;;55.78;24.35;;;;;;;7.02;59.56;99092.22;4397298;32;20175;-88
2022/12/09 07:59:59;;;;;;;61.13;25.37;;;;;;;7.03;59.57;99092.19;4386409;32;20167;-88
2022/12/09 08:02:24;;;;;;;56.88;24.35;;;;;;;7.09;59.57;99086.81;4397568;32;20114;-88
2022/12/09 08:04:49;;;;;;;58.00;24.17;;;;;;;7.05;59.57;99085.22;4396565;32;20144;-88
2022/12/09 08:07:15;;;;;;;54.13;24.50;;;;;;;7.07;59.57;99083.44;4374144;32;20114;-88
2022/12/09 08:09:40;;;;;;;56.22;23.75;;;;;;;7.20;59.58;99086.53;4397260;32;20188;-88
2022/12/09 08:12:06;;;;;;;48.58;22.20;;;;;;;7.11;59.58;99076.47;4408449;32;22904;-88
2022/12/09 08:14:31;;;;;;;47.97;21.92;;;;;;;7.20;59.58;99077.91;4384088;32;20093;-88
2022/12/09 08:16:57;;;;;;;52.67;22.13;;;;;;;7.00;59.57;99078.50;4396635;32;20641;-88
2022/12/09 08:19:22;;;;;;;52.97;22.02;;;;;;;6.97;59.57;99069.06;4381735;32;20201;-88
2022/12/09 08:21:47;;;;;;;52.80;22.92;;;;;;;7.00;59.56;99071.56;4382885;32;20137;-88
2022/12/09 08:24:13;;;;;;;41.30;20.42;;;;;;;7.10;59.58;99067.00;4383179;32;20149;-88
2022/12/09 08:26:39;;;;;;;47.00;20.48;;;;;;;7.30;59.58;99064.66;4384310;32;20474;-87
2022/12/09 08:29:09;;;;;;;43.85;20.15;;;;;;;7.18;59.58;99059.00;4381796;32;20524;-88
2022/12/09 08:31:34;;;;;;;45.78;20.58;;;;;;;7.23;59.58;99064.88;4394570;32;20105;-88
2022/12/09 08:34:02;;;;;;;45.35;19.85;;;;;;;7.33;59.59;99056.81;4393742;32;20370;-87
2022/12/09 08:36:27;;;;;;;45.55;19.50;;;;;;;7.43;59.59;99054.78;4407860;32;20180;-88
2022/12/09 08:38:53;;;;;;;44.85;19.42;;;;;;;7.41;59.59;99054.00;4396222;32;20154;-87
2022/12/09 08:41:33;;;;;;;46.50;19.95;;;;;;;7.38;59.59;99054.09;4395742;32;20156;-87
2022/12/09 08:44:03;;;;;;;41.28;18.98;;;;;;;7.41;59.59;99048.81;4390254;32;20120;-87
2022/12/09 08:46:28;;;;;;;42.40;19.45;;;;;;;7.58;59.60;99043.97;4393244;32;20105;-88
2022/12/09 08:48:54;;;;;;;38.92;18.83;;;;;;;7.55;59.60;99038.88;4394282;32;20478;-87
2022/12/09 08:51:19;;;;;;;43.17;19.75;;;;;;;7.54;59.59;99041.50;4394166;32;20152;-87
2022/12/09 08:53:45;;;;;;;41.83;19.95;;;;;;;7.66;59.61;99036.81;4398513;32;20116;-87
2022/12/09 08:56:11;;;;;;;41.65;19.42;;;;;;;7.65;59.60;99031.66;4402632;32;20148;-87
2022/12/09 08:58:36;;;;;;;40.65;19.40;;;;;;;7.60;59.60;99025.78;4407111;32;20136;-87
2022/12/09 09:01:02;;;;;;;41.40;19.67;;;;;;;7.48;59.60;99029.59;4397310;32;20113;-87
2022/12/09 09:03:28;;;;;;;40.45;18.12;;;;;;;7.55;59.60;99018.16;4397482;32;20466;-88
2022/12/09 09:05:53;;;;;;;39.05;18.73;;;;;;;7.50;59.60;99020.03;4389634;32;20132;-87
2022/12/09 09:08:18;;;;;;;40.22;18.70;;;;;;;7.55;59.60;99012.97;4395996;32;20113;-87
2022/12/09 09:10:44;;;;;;;46.85;19.20;;;;;;;7.74;59.61;99009.78;4382606;32;20114;-87
2022/12/09 09:13:09;;;;;;;38.75;17.55;;;;;;;7.70;59.61;99011.63;4412331;32;20126;-88
2022/12/09 09:15:38;;;;;;;38.88;17.12;;;;;;;7.67;59.60;99006.56;4397076;32;20617;-87
2022/12/09 09:18:03;;;;;;;38.70;17.60;;;;;;;7.57;59.60;99015.50;4408009;32;20661;-87
2022/12/09 09:20:29;;;;;;;44.00;18.85;;;;;;;7.44;59.59;99014.22;4406016;32;20161;-87
2022/12/09 09:23:13;;;;;;;43.22;19.58;;;;;;;7.44;59.59;99015.06;4384243;32;20138;-87
2022/12/09 09:25:41;;;;;;;38.38;18.10;;;;;;;7.42;59.60;99005.66;4410442;32;20113;-87
2022/12/09 09:28:08;;;;;;;44.70;19.05;;;;;;;7.61;59.60;99004.19;4385448;32;20170;-87
2022/12/09 09:30:33;;;;;;;36.20;16.62;;;;;;;7.50;59.60;98996.72;4395644;32;20156;-87
2022/12/09 09:32:58;;;;;;;38.83;17.70;;;;;;;7.45;59.59;98992.59;4408705;32;20105;-87
2022/12/09 09:35:24;;;;;;;38.47;17.98;;;;;;;7.35;59.59;99002.41;4390279;32;20148;-87
2022/12/09 09:37:50;;;;;;;38.67;17.73;;;;;;;7.36;59.59;98993.75;4395090;32;20106;-87
2022/12/09 09:40:16;;;;;;;39.42;18.75;;;;;;;7.55;59.60;98983.62;4380087;32;20101;-87
2022/12/09 09:42:44;;;;;;;37.35;17.37;;;;;;;7.59;59.60;98988.69;4395100;32;20474;-87
2022/12/09 09:45:12;;;;;;;40.10;18.30;;;;;;;7.54;59.59;98984.53;4387480;32;20171;-87
2022/12/09 09:47:42;;;;;;;38.28;18.92;;;;;;;7.56;59.60;98986.16;4395214;32;20118;-88
2022/12/09 09:50:31;;;;;;;43.90;19.30;;;;;;;7.30;59.58;98980.97;4394340;32;20071;-87
2022/12/09 09:52:56;;;;;;;40.17;18.98;;;;;;;7.33;59.59;98973.09;4391180;32;20086;-87
2022/12/09 09:55:33;;;;;;;42.10;18.42;;;;;;;7.55;59.60;98968.94;4399932;32;20128;-87
2022/12/09 09:58:25;;;;;;;41.88;18.90;;;;;;;7.42;59.59;98959.88;4397361;32;20110;-87
2022/12/09 10:01:08;;;;;;;42.62;19.65;;;;;;;7.33;59.59;98958.44;4394880;32;20131;-87
2022/12/09 10:03:45;;;;;;;44.60;18.83;;;;;;;7.49;59.60;98943.25;4395998;32;20101;-87
2022/12/09 10:06:28;;;;;;;42.35;19.52;;;;;;;7.47;59.60;98945.03;4410286;32;20152;-88
2022/12/09 10:09:01;;;;;;;39.25;18.80;;;;;;;7.51;59.60;98936.28;4388418;32;20117;-87
2022/12/09 10:11:48;;;;;;;46.78;20.35;;;;;;;7.60;59.60;98929.97;4395100;32;20140;-87
2022/12/09 10:14:41;;;;;;;45.08;18.75;;;;;;;7.39;59.58;98921.16;4407650;32;20103;-88
2022/12/09 10:17:43;;;;;;;43.00;18.55;;;;;;;7.46;59.59;98916.63;4395752;32;20110;-87
2022/12/09 10:20:14;;;;;;;46.30;18.70;;;;;;;7.17;59.57;98899.44;4395675;32;20122;-87
2022/12/09 10:22:50;;;;;;;40.78;18.42;;;;;;;7.24;59.58;98898.34;4385139;32;20085;-87
2022/12/09 10:25:24;;;;;;;41.90;18.65;;;;;;;7.16;59.57;98885.66;4410136;32;20470;-87
2022/12/09 10:28:09;;;;;;;40.70;17.50;;;;;;;7.16;59.57;98880.47;4385408;32;20135;-87
2022/12/09 10:30:34;;;;;;;42.50;19.50;;;;;;;7.19;59.58;98867.44;4392805;32;20133;-87
2022/12/09 10:33:00;;;;;;;43.05;18.45;;;;;;;7.09;59.57;98855.66;4394861;32;20128;-87
2022/12/09 10:35:28;;;;;;;46.80;18.17;;;;;;;7.15;59.57;98852.06;4395340;32;20145;-87
2022/12/09 10:37:54;;;;;;;45.53;19.12;;;;;;;7.17;59.57;98845.09;4397553;32;20117;-87
2022/12/09 10:40:24;;;;;;;41.75;18.52;;;;;;;7.09;59.57;98842.72;4384780;32;20191;-87
2022/12/09 10:45:50;;;;;;;40.90;17.05;;;;;;;7.24;59.58;98815.50;4404997;32;20163;-87
2022/12/09 10:48:32;;;;;;;36.83;17.73;;;;;;;7.02;59.57;98813.63;4394618;32;20173;-87
2022/12/09 10:51:04;;;;;;;37.85;17.75;;;;;;;7.08;59.57;98807.41;4396179;32;20117;-87
2022/12/09 10:53:29;;;;;;;42.97;18.42;;;;;;;7.14;59.57;98798.59;4407103;32;20165;-87
2022/12/09 10:55:55;;;;;;;51.15;18.58;;;;;;;7.05;59.57;98808.34;4413159;32;20462;-87
2022/12/09 10:58:22;;;;;;;42.62;18.50;;;;;;;7.04;59.57;98800.62;4420498;32;20164;-87
2022/12/09 11:00:59;;;;;;;42.05;16.77;;;;;;;7.09;59.57;98806.50;4409932;32;20136;-87
2022/12/09 11:03:35;;;;;;;36.25;15.88;;;;;;;7.12;59.58;98795.22;4409788;32;20129;-87
2022/12/09 11:06:21;;;;;;;34.95;16.17;;;;;;;7.03;59.57;98786.84;4390703;32;20101;-87
2022/12/09 11:09:02;;;;;;;33.65;14.20;;;;;;;7.06;59.57;98780.72;4409392;32;20129;-87
2022/12/09 11:11:38;;;;;;;32.75;15.40;;;;;;;7.11;59.58;98768.50;4401635;32;20523;-87
2022/12/09 11:14:21;;;;;;;37.50;15.65;;;;;;;7.01;59.57;98765.38;4388936;32;20704;-87
2022/12/09 11:16:57;;;;;;;33.85;15.75;;;;;;;6.96;59.57;98763.84;4409442;32;20120;-86
2022/12/09 11:19:33;;;;;;;34.72;15.73;;;;;;;7.00;59.57;98761.09;4384487;32;20753;-87
2022/12/09 11:22:38;;;;;;;36.95;15.77;;;;;;;7.09;59.58;98760.75;4396725;32;20106;-87
2022/12/09 11:25:10;;;;;;;33.03;15.82;;;;;;;7.21;59.58;98754.34;4378080;32;20493;-86
2022/12/09 11:27:35;;;;;;;38.08;15.68;;;;;;;7.17;59.57;98757.09;4409348;32;20104;-87
2022/12/09 11:30:04;;;;;;;35.88;15.63;;;;;;;7.14;59.58;98755.47;4409664;32;20126;-87
2022/12/09 11:32:29;;;;;;;37.55;17.00;;;;;;;7.18;59.58;98758.78;4406870;32;20106;-88
2022/12/09 11:34:55;;;;;;;36.03;16.02;;;;;;;7.08;59.57;98753.91;4421693;32;20490;-87